Time;durP1;ratioP1;P1;durP2;ratioP2;P2;SDS_P1;SDS_P2;PMS_P1;PMS_P2;Temp;Humidity;BMP_temperature;BMP_pressure;BME280_temperature;BME280_humidity;BME280_pressure;Samples;Min_cycle;Max_cycle;Signal;HPM_P1;HPM_P2
2021/05/06 00:00:18;;;;;;;;;;;;;;;5.26;100.00;100857.25;5239227;28;19912;-74
2021/05/06 00:03:32;;;;;;;;;;;;;;;5.26;100.00;100865.22;5225984;28;19947;-74
2021/05/06 00:06:50;;;;;;;;;;;;;;;5.28;100.00;100863.28;5238747;28;20339;-74
2021/05/06 00:09:49;;;;;;;;;;;;;;;5.36;100.00;100858.13;5245988;28;20376;-74
2021/05/06 00:31:40;;;;;;;;;;;;;;;5.43;100.00;100864.63;5213282;28;19913;-73
2021/05/06 00:34:06;;;;;;;;;;;;;;;5.47;100.00;100868.69;5225462;28;19909;-74
2021/05/06 00:36:36;;;;;;;;;;;;;;;5.44;100.00;100869.81;5217682;28;19925;-73
2021/05/06 00:39:12;;;;;;;;;;;;;;;5.45;100.00;100868.81;5225759;28;19924;-73
2021/05/06 00:55:30;;;;;;;;;;;;;;;5.44;100.00;100864.47;5235828;28;19934;-74
2021/05/06 01:06:19;;;;;;;;;;;;;;;5.41;100.00;100859.41;5239595;28;19920;-74
2021/05/06 01:08:54;;;;;;;;;;;;;;;5.37;100.00;100858.03;5232773;28;19913;-74
2021/05/06 01:11:40;;;;;;;;;;;;;;;5.37;100.00;100852.69;5224938;28;19920;-74
2021/05/06 01:14:11;;;;;;;;;;;;;;;5.35;100.00;100856.44;5228606;28;19912;-74
2021/05/06 01:16:41;;;;;;;;;;;;;;;5.33;100.00;100847.78;5245330;28;19991;-74
2021/05/06 01:19:12;;;;;;;;;;;;;;;5.26;100.00;100842.13;5231071;28;20013;-74
2021/05/06 01:21:42;;;;;;;;;;;;;;;5.28;100.00;100845.50;5232577;28;19913;-74
2021/05/06 01:24:13;;;;;;;;;;;;;;;5.25;100.00;100858.22;5240434;28;20324;-74
2021/05/06 01:26:56;;;;;;;;;;;;;;;5.24;100.00;100853.88;5241713;28;20347;-74
2021/05/06 01:29:31;;;;;;;;;;;;;;;5.18;100.00;100860.56;5227340;28;19929;-72
2021/05/06 01:32:17;;;;;;;;;;;;;;;5.18;100.00;100856.09;5236419;28;19913;-72
2021/05/06 01:34:54;;;;;;;;;;;;;;;5.17;100.00;100861.53;5224605;28;20000;-72
2021/05/06 01:37:32;;;;;;;;;;;;;;;5.19;100.00;100870.22;5222216;28;20008;-72
2021/05/06 01:42:50;;;;;;;;;;;;;;;5.16;100.00;100859.84;5222126;28;19916;-72
2021/05/06 01:48:27;;;;;;;;;;;;;;;5.12;100.00;100855.75;5224302;28;20389;-72
2021/05/06 01:59:20;;;;;;;;;;;;;;;4.92;100.00;100853.00;5223100;28;19917;-71
2021/05/06 02:01:51;;;;;;;;;;;;;;;4.77;100.00;100851.63;5224318;28;19913;-71
2021/05/06 02:04:21;;;;;;;;;;;;;;;4.71;100.00;100859.25;5243358;28;19913;-72
2021/05/06 02:06:52;;;;;;;;;;;;;;;4.63;100.00;100859.91;5229776;28;19962;-72
2021/05/06 02:09:23;;;;;;;;;;;;;;;4.59;100.00;100863.78;5231012;28;19912;-71
2021/05/06 02:11:53;;;;;;;;;;;;;;;4.60;100.00;100861.00;5242572;28;20354;-70
2021/05/06 02:14:24;;;;;;;;;;;;;;;4.54;100.00;100858.00;5223773;28;20296;-72
2021/05/06 02:16:55;;;;;;;;;;;;;;;4.56;100.00;100856.06;5223481;28;20796;-71
2021/05/06 02:19:35;;;;;;;;;;;;;;;4.55;100.00;100841.94;5229487;28;19944;-72
2021/05/06 02:22:08;;;;;;;;;;;;;;;4.55;100.00;100854.38;5221695;28;20399;-71
2021/05/06 02:24:38;;;;;;;;;;;;;;;4.52;100.00;100846.66;5229823;28;19913;-71
2021/05/06 02:27:09;;;;;;;;;;;;;;;4.56;100.00;100840.13;5223678;28;19919;-72
2021/05/06 02:29:39;;;;;;;;;;;;;;;4.57;100.00;100840.00;5223648;28;19913;-71
2021/05/06 02:32:10;;;;;;;;;;;;;;;4.65;100.00;100839.34;5244746;28;20755;-72
2021/05/06 02:34:41;;;;;;;;;;;;;;;4.65;100.00;100837.53;5241630;28;19966;-72
2021/05/06 02:37:12;;;;;;;;;;;;;;;4.70;100.00;100842.47;5229936;28;19917;-72
2021/05/06 02:39:45;;;;;;;;;;;;;;;4.66;100.00;100839.22;5237475;28;19982;-72
2021/05/06 02:42:16;;;;;;;;;;;;;;;4.71;100.00;100830.84;5222830;28;19959;-72
2021/05/06 02:44:46;;;;;;;;;;;;;;;4.72;100.00;100832.56;5228178;28;19913;-70
2021/05/06 02:47:16;;;;;;;;;;;;;;;4.75;100.00;100832.28;5222378;28;19963;-72
2021/05/06 02:49:48;;;;;;;;;;;;;;;4.72;100.00;100835.22;5222909;28;19917;-71
2021/05/06 02:52:37;;;;;;;;;;;;;;;4.75;100.00;100832.28;5216739;28;19956;-71
2021/05/06 02:55:15;;;;;;;;;;;;;;;4.75;100.00;100831.44;5222886;28;20301;-71
2021/05/06 03:03:06;;;;;;;;;;;;;;;4.71;100.00;100816.72;5211079;28;19916;-72
2021/05/06 03:05:38;;;;;;;;;;;;;;;4.69;100.00;100816.88;5236040;28;20377;-72
2021/05/06 03:08:18;;;;;;;;;;;;;;;4.66;100.00;100812.63;5222592;28;19919;-72
2021/05/06 03:10:58;;;;;;;;;;;;;;;4.66;100.00;100820.63;5241218;28;19958;-71
2021/05/06 03:14:04;;;;;;;;;;;;;;;4.65;100.00;100815.44;5241777;28;20337;-72
2021/05/06 03:24:31;;;;;;;;;;;;;;;4.31;100.00;100807.59;5237994;28;19993;-71
2021/05/06 03:27:02;;;;;;;;;;;;;;;4.23;100.00;100811.88;5228516;28;19920;-72
2021/05/06 03:29:38;;;;;;;;;;;;;;;4.15;100.00;100810.69;5226751;28;19909;-72
2021/05/06 03:32:21;;;;;;;;;;;;;;;4.15;100.00;100804.53;5246896;28;19912;-71
2021/05/06 03:35:04;;;;;;;;;;;;;;;4.12;100.00;100808.31;5230348;28;20289;-72
2021/05/06 03:43:32;;;;;;;;;;;;;;;3.86;100.00;100798.94;5228233;28;20018;-72
2021/05/06 04:17:13;;;;;;;;;;;;;;;3.87;100.00;100780.25;5246599;28;19917;-72
2021/05/06 04:36:07;;;;;;;;;;;;;;;3.84;100.00;100772.53;5225241;28;19917;-71
2021/05/06 04:38:38;;;;;;;;;;;;;;;3.82;100.00;100782.44;5225313;28;20377;-71
2021/05/06 04:50:17;;;;;;;;;;;;;;;4.00;100.00;100773.94;5210029;28;19913;-72
2021/05/06 04:55:15;;;;;;;;;;;;;;;4.25;100.00;100772.75;5224950;28;19913;-74
2021/05/06 04:58:00;;;;;;;;;;;;;;;4.38;100.00;100779.59;5229755;28;19955;-73
2021/05/06 05:03:37;;;;;;;;;;;;;;;4.67;100.00;100776.31;5225120;28;19912;-74
2021/05/06 05:06:09;;;;;;;;;;;;;;;4.71;100.00;100785.69;5245336;28;20400;-73
2021/05/06 05:08:46;;;;;;;;;;;;;;;4.86;100.00;100786.19;5243037;28;19913;-74
2021/05/06 05:11:27;;;;;;;;;;;;;;;4.89;100.00;100777.97;5224303;28;19912;-74
2021/05/06 05:25:06;;;;;;;;;;;;;;;5.62;100.00;100776.88;5227953;28;19917;-73
2021/05/06 05:27:36;;;;;;;;;;;;;;;6.50;100.00;100777.84;5224170;28;19919;-74
2021/05/06 05:30:07;;;;;;;;;;;;;;;7.29;100.00;100771.34;5241974;28;19916;-73
2021/05/06 05:32:37;;;;;;;;;;;;;;;7.67;100.00;100768.47;5232553;28;19913;-73
2021/05/06 05:35:15;;;;;;;;;;;;;;;8.05;100.00;100764.72;5223421;28;19913;-73
2021/05/06 05:37:49;;;;;;;;;;;;;;;8.42;100.00;100771.75;5219139;28;19917;-73
2021/05/06 05:42:59;;;;;;;;;;;;;;;9.18;100.00;100770.28;5224272;28;19913;-73
2021/05/06 05:46:05;;;;;;;;;;;;;;;9.34;100.00;100771.22;5225907;28;19913;-74
2021/05/06 05:56:46;;;;;;;;;;;;;;;10.28;100.00;100772.84;5254653;28;19952;-73
2021/05/06 05:59:16;;;;;;;;;;;;;;;10.46;100.00;100778.06;5243629;28;19960;-73
2021/05/06 06:01:46;;;;;;;;;;;;;;;10.62;100.00;100771.84;5233008;28;19982;-73
2021/05/06 06:04:17;;;;;;;;;;;;;;;11.26;100.00;100775.44;5223348;28;19916;-75
2021/05/06 06:06:47;;;;;;;;;;;;;;;11.89;100.00;100768.31;5223696;28;19948;-73
2021/05/06 06:09:17;;;;;;;;;;;;;;;12.41;100.00;100759.56;5222782;28;20377;-73
2021/05/06 06:11:48;;;;;;;;;;;;;;;12.36;100.00;100764.66;5237067;28;20490;-73
2021/05/06 06:14:37;;;;;;;;;;;;;;;12.58;93.37;100765.66;5230630;28;19919;-73
2021/05/06 06:17:07;;;;;;;;;;;;;;;11.91;100.00;100764.44;5226736;28;19924;-73
2021/05/06 06:19:38;;;;;;;;;;;;;;;11.20;100.00;100765.41;5222925;28;20389;-73
2021/05/06 06:22:10;;;;;;;;;;;;;;;10.49;100.00;100760.78;5233353;28;20348;-73
2021/05/06 06:24:41;;;;;;;;;;;;;;;10.25;100.00;100775.03;5243930;28;19912;-74
2021/05/06 06:27:12;;;;;;;;;;;;;;;9.89;100.00;100759.19;5223261;28;19919;-74
2021/05/06 06:29:42;;;;;;;;;;;;;;;9.70;100.00;100764.81;5223183;28;20043;-74
2021/05/06 06:32:15;;;;;;;;;;;;;;;9.51;100.00;100763.25;5243809;28;19912;-73
2021/05/06 06:34:47;;;;;;;;;;;;;;;9.19;100.00;100759.44;5230381;28;20293;-73
2021/05/06 06:37:17;;;;;;;;;;;;;;;8.99;100.00;100761.50;5243544;28;19924;-73
2021/05/06 06:39:48;;;;;;;;;;;;;;;8.81;100.00;100763.38;5229373;28;19917;-73
2021/05/06 06:42:18;;;;;;;;;;;;;;;9.04;100.00;100764.53;5243972;28;19916;-74
2021/05/06 06:44:48;;;;;;;;;;;;;;;9.14;100.00;100769.78;5243157;28;19912;-73
2021/05/06 06:47:19;;;;;;;;;;;;;;;9.29;100.00;100762.00;5208944;28;20295;-73
2021/05/06 06:49:49;;;;;;;;;;;;;;;9.34;100.00;100765.84;5223478;28;19917;-73
2021/05/06 06:52:20;;;;;;;;;;;;;;;9.21;100.00;100754.75;5216536;28;20015;-73
2021/05/06 06:54:50;;;;;;;;;;;;;;;9.28;100.00;100757.59;5243827;28;19957;-73
2021/05/06 06:57:20;;;;;;;;;;;;;;;9.54;100.00;100754.91;5229584;28;19936;-72
2021/05/06 06:59:51;;;;;;;;;;;;;;;9.57;100.00;100750.03;5234247;28;19976;-72
2021/05/06 07:02:21;;;;;;;;;;;;;;;9.50;100.00;100749.03;5239052;28;20258;-72
2021/05/06 07:04:51;;;;;;;;;;;;;;;9.29;100.00;100753.97;5233062;28;19924;-72
2021/05/06 07:07:22;;;;;;;;;;;;;;;9.72;100.00;100746.75;5226428;28;19912;-72
2021/05/06 07:09:52;;;;;;;;;;;;;;;9.76;100.00;100753.44;5231538;28;19920;-72
2021/05/06 07:12:22;;;;;;;;;;;;;;;9.76;100.00;100761.50;5222667;28;20242;-72
2021/05/06 07:14:53;;;;;;;;;;;;;;;9.41;100.00;100757.19;5235453;28;20089;-73
2021/05/06 07:17:23;;;;;;;;;;;;;;;9.57;100.00;100750.03;5229446;28;19924;-70
2021/05/06 07:19:53;;;;;;;;;;;;;;;9.40;100.00;100742.97;5229030;28;19913;-71
2021/05/06 07:22:24;;;;;;;;;;;;;;;9.51;100.00;100741.81;5214922;28;19920;-71
2021/05/06 07:24:54;;;;;;;;;;;;;;;9.51;100.00;100737.31;5236364;28;20009;-70
2021/05/06 07:27:25;;;;;;;;;;;;;;;9.63;100.00;100742.34;5231239;28;19920;-71
2021/05/06 07:29:55;;;;;;;;;;;;;;;9.71;100.00;100742.38;5229773;28;19917;-71
2021/05/06 07:32:26;;;;;;;;;;;;;;;9.98;100.00;100743.94;5242864;28;19912;-72
2021/05/06 07:34:56;;;;;;;;;;;;;;;9.82;100.00;100739.41;5243119;28;20051;-71
2021/05/06 07:37:26;;;;;;;;;;;;;;;9.84;100.00;100734.72;5231389;28;19916;-71
2021/05/06 07:39:57;;;;;;;;;;;;;;;10.07;100.00;100740.28;5221673;28;19924;-71
2021/05/06 07:42:27;;;;;;;;;;;;;;;10.23;100.00;100734.09;5222567;28;19913;-71
2021/05/06 07:44:58;;;;;;;;;;;;;;;10.08;100.00;100741.94;5222536;28;19913;-72
2021/05/06 07:47:28;;;;;;;;;;;;;;;10.24;100.00;100741.16;5220375;28;19913;-71
2021/05/06 07:49:59;;;;;;;;;;;;;;;10.06;100.00;100725.22;5221210;28;19913;-71
2021/05/06 07:52:29;;;;;;;;;;;;;;;9.97;100.00;100718.16;5230010;28;20261;-71
2021/05/06 07:55:00;;;;;;;;;;;;;;;10.29;100.00;100718.22;5222027;28;20293;-70
2021/05/06 07:57:30;;;;;;;;;;;;;;;10.61;100.00;100716.53;5221617;28;19921;-71
2021/05/06 08:00:01;;;;;;;;;;;;;;;10.62;100.00;100710.97;5232627;28;20373;-71
2021/05/06 08:02:31;;;;;;;;;;;;;;;10.72;100.00;100712.66;5229609;28;19919;-71
2021/05/06 08:05:02;;;;;;;;;;;;;;;10.88;100.00;100701.88;5246162;28;19912;-70
2021/05/06 08:07:32;;;;;;;;;;;;;;;10.96;100.00;100699.19;5240271;28;19963;-70
2021/05/06 08:10:03;;;;;;;;;;;;;;;11.24;99.12;100696.88;5239116;28;19912;-71
2021/05/06 08:12:34;;;;;;;;;;;;;;;11.40;100.00;100704.06;5233005;28;19912;-71
2021/05/06 08:15:07;;;;;;;;;;;;;;;11.01;90.45;100707.56;5232508;28;20363;-71
2021/05/06 08:17:39;;;;;;;;;;;;;;;11.13;93.33;100710.69;5245924;28;19924;-70
2021/05/06 08:20:14;;;;;;;;;;;;;;;11.46;99.89;100697.97;5232444;28;20517;-70
2021/05/06 08:22:45;;;;;;;;;;;;;;;11.80;100.00;100705.69;5231361;28;20285;-70
2021/05/06 08:25:16;;;;;;;;;;;;;;;11.93;97.19;100705.13;5228320;28;19913;-71
2021/05/06 08:27:47;;;;;;;;;;;;;;;11.78;90.80;100705.00;5225070;28;19912;-71
2021/05/06 08:30:17;;;;;;;;;;;;;;;11.26;85.97;100702.94;5224917;28;20332;-70
2021/05/06 08:32:48;;;;;;;;;;;;;;;11.26;93.33;100700.25;5225436;28;19916;-70
2021/05/06 08:35:18;;;;;;;;;;;;;;;11.53;100.00;100701.63;5232420;28;19913;-70
2021/05/06 08:37:48;;;;;;;;;;;;;;;11.71;91.62;100704.06;5245682;28;19927;-70
2021/05/06 08:40:19;;;;;;;;;;;;;;;11.85;92.63;100707.88;5245354;28;19912;-70
2021/05/06 08:42:53;;;;;;;;;;;;;;;11.92;94.49;100698.06;5243404;28;20015;-70
2021/05/06 08:45:27;;;;;;;;;;;;;;;12.21;90.01;100699.22;5225063;28;19913;-70
2021/05/06 08:47:58;;;;;;;;;;;;;;;11.93;83.70;100700.56;5222960;28;19999;-70
2021/05/06 08:50:28;;;;;;;;;;;;;;;12.07;86.34;100706.19;5216209;28;20007;-70
2021/05/06 08:52:59;;;;;;;;;;;;;;;12.13;82.65;100687.47;5243040;28;20373;-70
2021/05/06 08:55:30;;;;;;;;;;;;;;;12.30;82.44;100693.59;5231818;28;20463;-70
2021/05/06 08:58:00;;;;;;;;;;;;;;;12.32;70.50;100696.91;5232613;28;19913;-70
2021/05/06 09:00:31;;;;;;;;;;;;;;;12.51;65.92;100692.06;5239290;28;19943;-70
2021/05/06 09:03:01;;;;;;;;;;;;;;;12.18;73.15;100689.63;5245961;28;19919;-70
2021/05/06 09:05:35;;;;;;;;;;;;;;;12.44;71.16;100690.06;5245759;28;19912;-70
2021/05/06 09:08:07;;;;;;;;;;;;;;;12.42;69.98;100691.28;5235412;28;19913;-71
2021/05/06 09:10:39;;;;;;;;;;;;;;;12.40;65.92;100687.94;5242197;28;20423;-70
2021/05/06 09:13:25;;;;;;;;;;;;;;;12.26;63.83;100692.28;5245385;28;19913;-70
2021/05/06 09:15:56;;;;;;;;;;;;;;;12.38;65.37;100689.97;5224552;28;20479;-70
2021/05/06 09:18:34;;;;;;;;;;;;;;;12.46;66.73;100684.53;5237887;28;20014;-70
2021/05/06 09:21:06;;;;;;;;;;;;;;;12.28;65.45;100684.00;5225675;28;19923;-70
2021/05/06 09:23:36;;;;;;;;;;;;;;;12.19;59.92;100672.47;5239166;28;20007;-70
2021/05/06 09:26:07;;;;;;;;;;;;;;;12.12;63.72;100675.06;5244794;28;20019;-69
2021/05/06 09:28:37;;;;;;;;;;;;;;;12.51;74.53;100674.06;5225353;28;20022;-70
2021/05/06 09:31:08;;;;;;;;;;;;;;;13.05;71.53;100671.13;5223960;28;19924;-70
2021/05/06 09:33:40;;;;;;;;;;;;;;;13.25;64.24;100668.69;5224882;28;19912;-70
2021/05/06 09:36:12;;;;;;;;;;;;;;;13.64;66.38;100659.41;5225371;28;20298;-70
2021/05/06 09:38:43;;;;;;;;;;;;;;;13.84;61.56;100660.44;5245579;28;19912;-70
2021/05/06 09:41:16;;;;;;;;;;;;;;;14.08;58.15;100667.34;5230639;28;20392;-70
2021/05/06 09:43:48;;;;;;;;;;;;;;;14.53;62.77;100659.84;5234892;28;19966;-70
2021/05/06 09:46:24;;;;;;;;;;;;;;;14.14;57.09;100669.25;5228010;28;20423;-70
2021/05/06 09:49:01;;;;;;;;;;;;;;;13.84;57.09;100665.00;5236347;28;19950;-70
2021/05/06 09:51:35;;;;;;;;;;;;;;;13.75;53.63;100658.91;5230343;28;19936;-70
2021/05/06 09:54:07;;;;;;;;;;;;;;;13.34;51.64;100647.88;5242550;28;19959;-70
2021/05/06 09:56:39;;;;;;;;;;;;;;;13.12;52.88;100649.66;5228807;28;19925;-70
2021/05/06 09:59:10;;;;;;;;;;;;;;;12.76;52.84;100644.19;5239682;28;19918;-70
2021/05/06 10:01:41;;;;;;;;;;;;;;;12.74;56.57;100638.97;5244090;28;20346;-71
2021/05/06 10:04:13;;;;;;;;;;;;;;;12.88;58.37;100640.00;5244467;28;20275;-68
2021/05/06 10:07:03;;;;;;;;;;;;;;;12.70;59.50;100640.38;5244678;28;20425;-68
2021/05/06 10:09:33;;;;;;;;;;;;;;;12.62;55.79;100635.09;5235294;28;20293;-69
2021/05/06 10:12:04;;;;;;;;;;;;;;;12.57;59.98;100627.56;5235352;28;19913;-69
2021/05/06 10:14:34;;;;;;;;;;;;;;;12.84;nan;100630.63;5223387;28;19912;-68
2021/05/06 10:17:06;;;;;;;;;;;;;;;12.86;57.44;100626.75;5236637;28;20321;-69
2021/05/06 10:19:38;;;;;;;;;;;;;;;12.69;57.05;100622.56;5229107;28;19913;-68
2021/05/06 10:22:10;;;;;;;;;;;;;;;12.85;56.37;100614.31;5228378;28;19913;-68
2021/05/06 10:24:41;;;;;;;;;;;;;;;13.14;55.26;100618.81;5223091;28;19913;-68
2021/05/06 10:27:15;;;;;;;;;;;;;;;13.31;55.29;100621.34;5236175;28;20439;-68
2021/05/06 10:29:46;;;;;;;;;;;;;;;13.41;53.22;100619.16;5222422;28;19913;-68
2021/05/06 10:32:17;;;;;;;;;;;;;;;13.55;50.90;100610.16;5223000;28;19924;-68
2021/05/06 10:34:51;;;;;;;;;;;;;;;13.51;50.01;100606.22;5225951;28;19965;-69
2021/05/06 10:37:27;;;;;;;;;;;;;;;13.78;54.73;100607.31;5232761;28;19928;-70
2021/05/06 10:39:57;;;;;;;;;;;;;;;13.98;50.18;100602.09;5228024;28;19952;-68
2021/05/06 10:42:29;;;;;;;;;;;;;;;13.67;46.41;100599.75;5231370;28;19924;-68
2021/05/06 10:44:59;;;;;;;;;;;;;;;13.27;50.14;100599.31;5222855;28;20007;-68
2021/05/06 10:47:38;;;;;;;;;;;;;;;13.51;53.11;100595.44;5208025;28;20055;-69
2021/05/06 10:50:09;;;;;;;;;;;;;;;13.60;53.36;100596.97;5231399;28;19920;-69
2021/05/06 10:52:41;;;;;;;;;;;;;;;13.80;52.23;100585.53;5222099;28;20381;-69
2021/05/06 10:55:12;;;;;;;;;;;;;;;13.63;48.67;100585.81;5243539;28;19912;-69
2021/05/06 10:57:42;;;;;;;;;;;;;;;13.62;50.77;100586.00;5224772;28;19928;-69
2021/05/06 11:00:15;;;;;;;;;;;;;;;13.71;51.44;100595.63;5222369;28;19916;-69
2021/05/06 11:02:48;;;;;;;;;;;;;;;13.76;51.36;100582.41;5242359;28;19928;-69
2021/05/06 11:05:19;;;;;;;;;;;;;;;13.30;49.32;100582.75;5243072;28;19923;-69
2021/05/06 11:08:03;;;;;;;;;;;;;;;13.42;51.84;100578.53;5230985;28;19917;-70
2021/05/06 11:10:42;;;;;;;;;;;;;;;13.44;51.68;100581.03;5239202;28;20296;-69
2021/05/06 11:13:13;;;;;;;;;;;;;;;13.66;48.90;100571.94;5222984;28;19913;-70
2021/05/06 11:15:44;;;;;;;;;;;;;;;13.76;50.70;100560.84;5236150;28;19913;-69
2021/05/06 11:18:33;;;;;;;;;;;;;;;13.97;48.91;100557.28;5234714;28;19977;-71
2021/05/06 11:21:03;;;;;;;;;;;;;;;14.18;49.70;100562.63;5227095;28;19924;-70
2021/05/06 11:23:34;;;;;;;;;;;;;;;14.48;46.42;100552.47;5231511;28;19913;-70
2021/05/06 11:26:05;;;;;;;;;;;;;;;14.19;48.06;100545.41;5233847;28;19935;-70
2021/05/06 11:28:38;;;;;;;;;;;;;;;14.54;47.86;100544.59;5229369;28;19912;-70
2021/05/06 11:31:08;;;;;;;;;;;;;;;14.98;52.95;100550.41;5230233;28;19992;-69
2021/05/06 11:33:39;;;;;;;;;;;;;;;15.25;49.17;100536.97;5222042;28;20416;-69
2021/05/06 11:36:10;;;;;;;;;;;;;;;15.01;50.45;100531.13;5222557;28;19924;-69
2021/05/06 11:38:42;;;;;;;;;;;;;;;15.15;47.84;100531.97;5244332;28;19913;-70
2021/05/06 11:41:14;;;;;;;;;;;;;;;15.01;47.92;100528.41;5246803;28;20278;-70
2021/05/06 11:43:46;;;;;;;;;;;;;;;15.11;46.25;100521.78;5237400;28;19913;-70
2021/05/06 11:46:17;;;;;;;;;;;;;;;15.05;46.06;100528.00;5229794;28;19920;-70
2021/05/06 11:48:50;;;;;;;;;;;;;;;15.49;45.96;100519.34;5237798;28;20427;-70
2021/05/06 11:51:23;;;;;;;;;;;;;;;15.93;45.10;100515.25;5223522;28;19912;-68
2021/05/06 11:54:04;;;;;;;;;;;;;;;15.70;47.70;100512.94;5202465;28;19919;-74
2021/05/06 12:04:31;;;;;;;3.20;1.05;;;;;;;21.68;66.98;100528.28;5212319;27;1526339;-55
2021/05/06 12:08:10;;;;;;;4.05;1.20;;;;;;;21.59;52.74;100515.31;5274074;27;20945;-49
2021/05/06 12:10:41;;;;;;;3.00;1.02;;;;;;;21.88;50.33;100508.69;5273209;28;20070;-50
2021/05/06 12:13:12;;;;;;;6.68;1.20;;;;;;;21.95;49.70;100500.34;5267539;28;20113;-51
2021/05/06 12:20:56;;;;;;;4.30;1.10;;;;;;;22.45;48.51;100486.59;5222414;27;20376;-63
2021/05/06 12:29:57;;;;;;;8.65;2.00;;;;;;;13.59;55.88;100471.31;5277985;27;20341;-69
2021/05/06 12:32:29;;;;;;;5.60;1.60;;;;;;;14.03;52.28;100472.88;5278326;28;20375;-69
2021/05/06 12:35:01;;;;;;;3.25;1.50;;;;;;;14.28;44.66;100467.00;5264934;27;20044;-69
2021/05/06 12:37:32;;;;;;;4.45;1.50;;;;;;;14.22;49.76;100472.16;5234683;28;20052;-69
2021/05/06 12:40:05;;;;;;;6.65;1.98;;;;;;;14.03;47.83;100469.34;5215233;28;20730;-69
2021/05/06 12:42:37;;;;;;;5.28;1.92;;;;;;;13.44;48.98;100475.94;5215244;28;20048;-69
2021/05/06 12:45:13;;;;;;;4.55;1.73;;;;;;;13.28;51.19;100474.38;5227634;28;20037;-71
2021/05/06 12:47:48;;;;;;;5.18;2.33;;;;;;;12.86;51.55;100473.28;5212881;28;20585;-69
2021/05/06 12:50:22;;;;;;;4.22;1.77;;;;;;;12.70;53.00;100477.03;5210388;28;20057;-70
2021/05/06 12:52:55;;;;;;;7.07;3.13;;;;;;;12.40;53.00;100475.44;5218625;28;20430;-70
2021/05/06 12:55:29;;;;;;;3.38;1.77;;;;;;;12.19;58.04;100471.59;5225467;28;20052;-69
2021/05/06 12:58:07;;;;;;;9.18;1.90;;;;;;;12.06;58.01;100470.59;5217105;28;20040;-69
2021/05/06 13:00:38;;;;;;;3.42;1.98;;;;;;;11.81;63.74;100467.31;5231263;28;20089;-70
2021/05/06 13:03:11;;;;;;;4.00;2.60;;;;;;;11.85;66.25;100469.47;5252911;28;20485;-70
2021/05/06 13:05:44;;;;;;;6.53;2.60;;;;;;;11.98;68.79;100478.75;5233909;28;20553;-70
2021/05/06 13:08:16;;;;;;;6.20;2.53;;;;;;;11.65;72.28;100466.47;5217819;28;20612;-70
2021/05/06 13:10:47;;;;;;;6.47;2.63;;;;;;;11.10;78.04;100470.28;5222895;28;20021;-69
2021/05/06 13:13:39;;;;;;;7.25;3.17;;;;;;;11.00;84.71;100466.97;5224136;28;20127;-69
2021/05/06 13:16:12;;;;;;;5.93;2.90;;;;;;;10.97;95.92;100486.13;5217707;28;20443;-70
2021/05/06 13:18:59;;;;;;;8.70;4.22;;;;;;;10.98;97.98;100474.38;5217040;28;20025;-70
2021/05/06 13:21:30;;;;;;;8.25;3.30;;;;;;;10.73;99.76;100481.72;5209823;28;20040;-69
2021/05/06 13:24:03;;;;;;;10.13;2.80;;;;;;;10.78;100.00;100478.50;5229207;28;20025;-69
2021/05/06 13:26:36;;;;;;;4.55;2.70;;;;;;;10.90;100.00;100463.69;5230503;28;20029;-70
2021/05/06 13:29:09;;;;;;;8.32;3.05;;;;;;;10.91;100.00;100451.13;5225936;28;20120;-70
2021/05/06 13:31:41;;;;;;;6.68;2.58;;;;;;;11.06;95.20;100460.06;5237496;28;20032;-70
2021/05/06 13:34:17;;;;;;;5.95;2.55;;;;;;;11.08;91.55;100449.97;5224873;28;20375;-70
2021/05/06 13:36:48;;;;;;;6.03;2.75;;;;;;;11.14;97.73;100447.44;5216977;28;20461;-70
2021/05/06 13:39:19;;;;;;;3.47;2.22;;;;;;;11.24;84.06;100446.31;5213046;28;20104;-70
2021/05/06 13:41:49;;;;;;;5.95;2.30;;;;;;;11.27;76.24;100445.97;5210983;28;20159;-70
2021/05/06 13:44:24;;;;;;;5.38;2.08;;;;;;;11.56;67.05;100438.00;5209721;28;20021;-70
2021/05/06 13:46:57;;;;;;;5.53;1.75;;;;;;;11.61;63.94;100432.91;5205003;28;20333;-70
2021/05/06 13:49:30;;;;;;;3.13;1.50;;;;;;;11.73;68.95;100429.75;5215390;28;20029;-70
2021/05/06 13:52:04;;;;;;;4.78;1.90;;;;;;;11.79;63.29;100429.03;5193661;28;20034;-70
2021/05/06 13:54:34;;;;;;;4.63;1.88;;;;;;;12.09;58.70;100427.19;5221416;28;20021;-70
2021/05/06 13:57:05;;;;;;;2.97;1.83;;;;;;;12.12;65.76;100418.78;5216377;28;20017;-70
2021/05/06 13:59:35;;;;;;;2.75;1.80;;;;;;;12.36;57.89;100418.47;5222894;28;20131;-70
2021/05/06 14:02:07;;;;;;;4.10;1.60;;;;;;;12.67;56.81;100417.38;5223176;28;20024;-70
2021/05/06 14:04:38;;;;;;;7.82;1.85;;;;;;;12.97;59.38;100410.03;5214813;28;20025;-70
2021/05/06 14:07:09;;;;;;;3.45;2.15;;;;;;;13.11;57.29;100411.00;5215688;28;20021;-70
2021/05/06 14:09:39;;;;;;;4.05;1.50;;;;;;;13.46;56.32;100399.28;5210918;28;20104;-69
2021/05/06 14:12:10;;;;;;;4.03;1.70;;;;;;;13.75;52.87;100402.78;5209563;28;20601;-70
2021/05/06 14:14:40;;;;;;;4.82;1.60;;;;;;;14.29;50.06;100403.91;5222537;28;20029;-71
2021/05/06 14:17:11;;;;;;;6.43;2.00;;;;;;;14.22;51.29;100401.19;5222828;28;20031;-70
2021/05/06 14:19:41;;;;;;;3.00;1.75;;;;;;;14.61;55.74;100399.69;5216998;28;20033;-70
2021/05/06 14:22:12;;;;;;;5.40;1.92;;;;;;;15.13;52.62;100396.25;5199647;28;20021;-70
2021/05/06 14:24:42;;;;;;;6.65;2.15;;;;;;;15.46;48.02;100395.41;5221419;28;20027;-72
2021/05/06 14:27:13;;;;;;;3.25;2.08;;;;;;;15.56;50.10;100393.13;5222633;28;20397;-70
2021/05/06 14:29:43;;;;;;;4.13;2.20;;;;;;;15.50;51.91;100389.38;5208600;28;20217;-70
2021/05/06 14:32:14;;;;;;;8.85;2.13;;;;;;;15.76;48.91;100390.41;5214529;28;20017;-70
2021/05/06 14:34:44;;;;;;;5.07;2.65;;;;;;;15.51;50.86;100384.81;5203485;28;20444;-70
2021/05/06 14:37:15;;;;;;;3.88;2.40;;;;;;;15.46;52.20;100390.88;5213256;28;20037;-70
2021/05/06 14:39:45;;;;;;;7.25;2.30;;;;;;;15.50;50.49;100394.78;5201485;28;20009;-71
2021/05/06 14:42:16;;;;;;;9.43;2.78;;;;;;;15.50;49.27;100397.50;5206919;28;211756;-70
2021/05/06 14:44:46;;;;;;;5.45;2.55;;;;;;;15.13;51.44;100390.84;5206969;28;20129;-70
2021/05/06 14:47:17;;;;;;;11.93;2.67;;;;;;;15.27;51.56;100391.69;5201713;28;20101;-69
2021/05/06 14:49:47;;;;;;;6.68;2.85;;;;;;;15.40;50.97;100390.84;5213957;28;20125;-70
2021/05/06 14:52:18;;;;;;;4.45;2.42;;;;;;;15.02;49.38;100394.19;5194333;28;20037;-70
2021/05/06 14:54:49;;;;;;;5.25;2.80;;;;;;;14.85;50.40;100391.03;5222281;28;20481;-70
2021/05/06 14:57:19;;;;;;;11.57;2.60;;;;;;;14.92;53.17;100394.59;5213880;28;20053;-70
2021/05/06 14:59:50;;;;;;;5.93;2.15;;;;;;;14.86;50.74;100397.25;5212005;28;20030;-71
2021/05/06 15:02:20;;;;;;;5.75;2.17;;;;;;;15.12;49.35;100391.06;5215091;28;20482;-70
2021/05/06 15:04:51;;;;;;;8.07;2.40;;;;;;;14.75;50.53;100391.41;5211497;28;20033;-70
2021/05/06 15:07:21;;;;;;;5.32;2.40;;;;;;;14.80;49.28;100389.97;5208572;28;20057;-69
2021/05/06 15:09:52;;;;;;;7.18;2.13;;;;;;;14.56;51.23;100394.06;5210508;28;20057;-69
2021/05/06 15:12:22;;;;;;;6.40;2.35;;;;;;;14.32;53.10;100392.72;5206371;28;20036;-69
2021/05/06 15:14:53;;;;;;;6.55;2.08;;;;;;;14.26;54.49;100394.38;5209647;28;20494;-69
2021/05/06 15:17:23;;;;;;;6.60;2.53;;;;;;;13.79;55.26;100393.28;5207023;28;20117;-69
2021/05/06 15:19:54;;;;;;;7.43;2.38;;;;;;;13.52;53.90;100388.75;5214918;28;20104;-70
2021/05/06 15:22:25;;;;;;;8.77;2.22;;;;;;;13.31;56.46;100384.25;5199195;28;20022;-69
2021/05/06 15:24:56;;;;;;;5.18;2.17;;;;;;;13.22;58.08;100380.88;5200776;28;20113;-69
2021/05/06 15:27:26;;;;;;;5.18;2.50;;;;;;;13.06;58.72;100390.03;5203160;28;20375;-70
2021/05/06 15:29:57;;;;;;;4.82;2.25;;;;;;;12.95;56.05;100391.38;5201261;28;20029;-69
2021/05/06 15:32:27;;;;;;;5.45;2.33;;;;;;;12.95;57.37;100385.13;5200783;28;20048;-69
2021/05/06 15:35:00;;;;;;;5.25;2.10;;;;;;;12.84;60.61;100381.09;5195882;28;20548;-69
2021/05/06 15:37:32;;;;;;;4.05;2.30;;;;;;;12.69;56.05;100383.84;5200694;28;20017;-69
2021/05/06 15:40:06;;;;;;;4.03;2.00;;;;;;;12.47;61.21;100375.97;5220315;28;20112;-68
2021/05/06 15:42:38;;;;;;;7.78;3.00;;;;;;;12.14;64.17;100373.69;5207320;28;20024;-69